Flight Track Log - Related Links

Times and Time Zones

All times are in EDT time to prevent confusion due to time zone crossing. See the N103MK flight status page for this flight to view local times or setup timezone preferences in your user account.

Time Position Orientation Groundspeed Altitude Reporting Facility
EDT Latitude Longitude Course Direction KTS MPH feet Rate Location/Type
Tue 09:36:00 AM 33.8500 -81.1952 270° West  Level FlightAware Approximate
Tue 09:37:00 AM 33.8550 -81.2434 301° West  Level FlightAware Approximate
Tue 09:38:00 AM 33.8675 -81.2895 273° West  Level FlightAware Approximate
Tue 09:39:00 AM 33.8695 -81.3394 273° West  Level FlightAware Approximate
Tue 09:40:00 AM 33.8714 -81.3893 273° West  Level FlightAware Approximate
Tue 09:41:00 AM 33.8732 -81.4392 273° West  Level FlightAware Approximate
Tue 09:42:00 AM 33.8751 -81.4892 273° West  Level FlightAware Approximate
Tue 09:43:00 AM 33.8769 -81.5391 273° West  Level FlightAware Approximate
Tue 09:44:00 AM 33.8788 -81.5890 273° West  Level FlightAware Approximate
Tue 09:45:00 AM 33.8806 -81.6395 273° West  Level FlightAware Approximate
Tue 09:46:00 AM 33.8824 -81.6900 272° West  Level FlightAware Approximate
Tue 09:47:00 AM 33.8841 -81.7405 272° West  Level FlightAware Approximate
Tue 09:48:00 AM 33.8858 -81.7911 272° West  Level FlightAware Approximate
Tue 09:49:00 AM 33.8875 -81.8416 272° West  Level FlightAware Approximate
Tue 09:50:00 AM 33.8892 -81.8921 272° West  Level FlightAware Approximate
Tue 09:51:00 AM 33.8908 -81.9427 272° West  Level FlightAware Approximate
Tue 09:52:00 AM 33.8924 -81.9932 272° West  Level FlightAware Approximate
Tue 09:53:00 AM 33.8940 -82.0437 272° West  Level FlightAware Approximate
Tue 09:54:00 AM 33.8956 -82.0943 272° West  Level FlightAware Approximate
Tue 09:55:00 AM 33.8971 -82.1448 272° West  Level FlightAware Approximate
Tue 09:56:00 AM 33.8987 -82.1953 272° West  Level FlightAware Approximate
Tue 09:57:00 AM 33.9002 -82.2458 272° West  Level FlightAware Approximate
Tue 09:58:00 AM 33.9017 -82.2964 272° West  Level FlightAware Approximate
Tue 09:59:00 AM 33.9031 -82.3469 272° West  Level FlightAware Approximate
Tue 10:00:00 AM 33.9046 -82.3975 272° West  Level FlightAware Approximate
Tue 10:01:00 AM 33.9060 -82.4480 272° West  Level FlightAware Approximate
Tue 10:02:00 AM 33.9074 -82.4985 272° West  Level FlightAware Approximate
Tue 10:03:00 AM 33.9088 -82.5491 272° West  Level FlightAware Approximate
Tue 10:04:00 AM 33.9102 -82.5996 272° West  Level FlightAware Approximate
Tue 10:05:00 AM 33.9115 -82.6502 272° West  Level FlightAware Approximate
Tue 10:06:00 AM 33.9129 -82.7007 272° West  Level FlightAware Approximate
Tue 10:07:00 AM 33.9142 -82.7513 272° West  Level FlightAware Approximate
Tue 10:08:00 AM 33.9155 -82.8018 272° West  Level FlightAware Approximate
Tue 10:09:00 AM 33.9168 -82.8524 273° West  Level FlightAware Approximate
Tue 10:10:00 AM 33.9187 -82.9029 273° West  Level FlightAware Approximate
Tue 10:10:39 AM 33.9667 -82.7833 272° West 146 168 10,000  Level Atlanta TRACON
Tue 10:11:00 AM 33.9205 -82.9534 273° West  Level FlightAware Approximate
Tue 10:11:33 AM 33.9500 -82.8333 248° West 143 165 10,000  Level Atlanta TRACON
Tue 10:12:00 AM 33.9224 -83.0040 273° West  Level FlightAware Approximate
Tue 10:12:39 AM 33.9500 -82.8833 270° West 143 165 10,100  Level Atlanta TRACON
Tue 10:13:00 AM 33.9242 -83.0545 273° West  Level FlightAware Approximate
Tue 10:13:33 AM 33.9500 -82.9333 270° West 143 165 10,100  Level Atlanta TRACON
Tue 10:14:00 AM 33.9260 -83.1050 272° West  Level FlightAware Approximate
Tue 10:14:33 AM 33.9500 -82.9667 270° West 144 166 10,100  Level Atlanta TRACON
Tue 10:15:00 AM 33.9278 -83.1556 272° West  Level FlightAware Approximate
Tue 10:15:39 AM 33.9667 -83.0167 292° West 147 169 10,100  Level Atlanta TRACON
Tue 10:17:00 AM 33.9592 -83.0844 262° West  Level FlightAware Approximate
Tue 10:17:33 AM 33.9833 -83.1167 262° West 145 167 10,100  Level Atlanta TRACON
Tue 10:18:39 AM 34.0000 -83.1667 292° West 145 167 10,100 -150 Level Atlanta TRACON
Tue 10:19:33 AM 34.0000 -83.2167 270° West 151 174 9,800 -400 Descending Atlanta TRACON
Tue 10:20:39 AM 34.0167 -83.2667 292° West 162 186 9,300 -429 Descending Atlanta TRACON
Tue 10:21:39 AM 34.0167 -83.3167 270° West 165 190 8,900 -450 Descending Atlanta TRACON
Tue 10:22:39 AM 34.0333 -83.3833 287° West 166 191 8,400 -483 Descending Atlanta TRACON
Tue 10:24:33 AM 34.0500 -83.4833 281° West 164 189 7,500 -467 Descending Atlanta TRACON
Tue 10:25:39 AM 34.0667 -83.5333 292° West 164 189 7,000 -476 Descending Atlanta TRACON
Tue 10:26:39 AM 34.0667 -83.5833 270° West 163 188 6,500 -450 Descending Atlanta TRACON
Tue 10:27:39 AM 34.0833 -83.6500 287° West 162 186 6,100 -167 Descending Atlanta TRACON
Tue 10:29:00 AM 34.0504 -83.6994 231° Southwest  Level FlightAware Approximate
Tue 10:29:39 AM 34.1000 -83.7500 231° Southwest 151 174 6,000  Level Atlanta TRACON
Tue 10:31:39 AM 34.1167 -83.8333 284° West 146 168 6,000  Level Atlanta TRACON
Tue 10:33:39 AM 34.1167 -83.9333 270° West 152 175 6,000  Level Atlanta TRACON
Tue 10:35:00 AM 34.0825 -83.9814 229° Southwest  Level FlightAware Approximate
Tue 10:36:40 AM 34.0667 -84.0500 229° Southwest 141 162 6,000  Level Atlanta TRACON
Tue 10:38:00 AM 34.0294 -84.0936 224° Southwest  Level FlightAware Approximate
Tue 10:42:40 AM 33.9833 -84.2500 270° West 138 159 3,000  Level Atlanta TRACON
Tue 10:44:40 AM 33.9167 -84.2833 203° Southwest 136 157 1,600 -700 Descending Atlanta TRACON
Tue 10:45:00 AM 33.8667 -84.3000 270° West  Level FlightAware Approximate
Tue 10:46:00 AM 33.8667 -84.2871 270° West  Level FlightAware Approximate
Tue 10:46:00 AM 33.8756 -84.3020 270° West  Level Estimated
Tue 10:47:00 AM 33.8756 -84.3020 270° West  Level Estimated
Tue 10:53:00 AM 33.8667 -84.3000 270° West  Level FlightAware Approximate

Login

Don't have an account? Register now (free) for customized features, flight alerts, and more!